Time;durP1;ratioP1;P1;durP2;ratioP2;P2;SDS_P1;SDS_P2;PMS_P1;PMS_P2;Temp;Humidity;BMP_temperature;BMP_pressure;BME280_temperature;BME280_humidity;BME280_pressure;Samples;Min_cycle;Max_cycle;Signal;HPM_P1;HPM_P2
2023/04/06 00:00:58;;;;;;;0.13;0.13;;;;;;;0.70;73.59;100218.25;6048252;23;20024;-92
2023/04/06 00:03:24;;;;;;;0.20;0.20;;;;;;;0.60;74.11;100214.22;6094798;23;20018;-91
2023/04/06 00:05:50;;;;;;;0.10;0.10;;;;;;;0.58;74.32;100202.09;6095549;23;20363;-91
2023/04/06 00:08:16;;;;;;;0.10;0.10;;;;;;;0.53;74.81;100192.25;6095159;23;20014;-91
2023/04/06 00:10:41;;;;;;;0.10;0.10;;;;;;;0.60;74.43;100206.03;6121279;23;20063;-92
2023/04/06 00:13:07;;;;;;;0.00;0.00;;;;;;;0.51;74.75;100197.31;6122365;23;20013;-91
2023/04/06 00:15:33;;;;;;;0.38;0.38;;;;;;;0.52;74.55;100203.56;6120461;23;20018;-91
2023/04/06 00:17:59;;;;;;;0.30;0.30;;;;;;;0.45;74.77;100191.34;6095471;23;20036;-91
2023/04/06 00:20:24;;;;;;;0.25;0.25;;;;;;;0.52;75.24;100203.56;6122081;23;20013;-91
2023/04/06 00:22:50;;;;;;;0.40;0.40;;;;;;;0.47;75.47;100201.91;6094621;23;20446;-92
2023/04/06 00:25:16;;;;;;;0.10;0.10;;;;;;;0.48;75.77;100206.25;6127441;23;20017;-92
2023/04/06 00:27:41;;;;;;;0.68;0.68;;;;;;;0.51;76.08;100210.16;6125210;23;20016;-92
2023/04/06 00:30:08;;;;;;;0.00;0.00;;;;;;;0.36;76.85;100190.84;6100616;23;20021;-91
2023/04/06 00:32:35;;;;;;;0.55;0.55;;;;;;;0.47;76.85;100200.00;6123750;23;20013;-92
2023/04/06 00:35:02;;;;;;;0.20;0.20;;;;;;;0.31;78.06;100190.34;6100182;23;20014;-92
2023/04/06 00:37:28;;;;;;;0.00;0.00;;;;;;;0.37;78.50;100197.06;6074640;23;20020;-92
2023/04/06 00:39:54;;;;;;;0.30;0.30;;;;;;;0.25;78.23;100180.88;6100915;23;20452;-91
2023/04/06 00:42:25;;;;;;;0.28;0.28;;;;;;;0.30;78.66;100195.00;6125044;23;20002;-92
2023/04/06 00:44:58;;;;;;;0.00;0.00;;;;;;;0.30;78.62;100181.38;6076063;23;20112;-91
2023/04/06 00:47:25;;;;;;;0.30;0.30;;;;;;;0.34;78.07;100192.34;6124751;23;20085;-92
2023/04/06 00:49:51;;;;;;;0.10;0.10;;;;;;;0.31;78.73;100193.88;6101035;23;20461;-93
2023/04/06 00:52:17;;;;;;;0.10;0.10;;;;;;;0.27;79.34;100184.03;6099608;23;20025;-91
2023/04/06 00:54:45;;;;;;;0.00;0.00;;;;;;;0.30;78.91;100199.69;6121922;23;20013;-94
2023/04/06 00:57:12;;;;;;;0.22;0.22;;;;;;;-0.04;79.79;100155.06;6074565;23;20111;-92
2023/04/06 00:59:40;;;;;;;0.47;0.47;;;;;;;0.00;80.39;100173.06;6075256;23;20025;-92
2023/04/06 01:04:43;;;;;;;0.00;0.00;;;;;;;0.14;81.07;100191.63;6146489;23;20029;-93
2023/04/06 01:07:15;;;;;;;0.00;0.00;;;;;;;0.08;80.98;100181.38;6078586;23;20017;-93
2023/04/06 01:09:50;;;;;;;0.30;0.30;;;;;;;0.15;81.01;100181.50;6103212;23;20016;-92
2023/04/06 01:12:21;;;;;;;0.20;0.20;;;;;;;0.11;81.51;100180.66;6099679;23;20064;-92
2023/04/06 01:14:47;;;;;;;2.15;1.20;;;;;;;0.02;81.79;100172.69;6151713;23;20385;-93
2023/04/06 01:17:13;;;;;;;0.15;0.15;;;;;;;0.02;82.55;100182.81;6124946;23;20013;-93
2023/04/06 01:19:40;;;;;;;0.10;0.10;;;;;;;0.01;83.70;100198.38;6098848;23;20013;-93
2023/04/06 01:22:06;;;;;;;0.10;0.10;;;;;;;-0.07;83.92;100194.75;6099891;23;20164;-92
2023/04/06 01:24:32;;;;;;;0.22;0.22;;;;;;;-0.09;83.97;100177.97;6124202;23;20474;-92
2023/04/06 01:27:09;;;;;;;0.30;0.30;;;;;;;-0.10;83.87;100184.56;6125186;23;20076;-90
2023/04/06 01:29:58;;;;;;;0.90;0.88;;;;;;;-0.12;84.56;100186.84;6090047;23;20018;-92
2023/04/06 01:32:58;;;;;;;0.00;0.00;;;;;;;-0.12;85.50;100186.09;6120452;23;20025;-93
2023/04/06 01:35:42;;;;;;;0.20;0.20;;;;;;;-0.22;85.84;100173.84;6125064;23;20028;-84
2023/04/06 01:38:13;;;;;;;0.52;0.52;;;;;;;-0.24;86.47;100172.63;6099265;23;20348;-83
2023/04/06 01:40:38;;;;;;;0.57;0.57;;;;;;;-0.25;86.88;100174.56;6098486;23;20013;-83
2023/04/06 01:43:05;;;;;;;0.63;0.63;;;;;;;-0.27;87.38;100174.13;6150785;23;20062;-84
2023/04/06 01:45:42;;;;;;;0.08;0.08;;;;;;;-0.22;86.81;100167.59;6123931;23;20024;-84
2023/04/06 01:48:14;;;;;;;0.00;0.00;;;;;;;-0.20;87.85;100173.47;6101664;23;20077;-84
2023/04/06 01:50:41;;;;;;;0.10;0.10;;;;;;;-0.32;88.12;100174.41;6125426;23;20025;-84
2023/04/06 01:53:09;;;;;;;0.10;0.05;;;;;;;-0.31;88.51;100173.25;6098187;23;20021;-84
2023/04/06 01:55:37;;;;;;;0.82;0.82;;;;;;;-0.32;88.09;100171.69;6122987;23;20462;-84
2023/04/06 01:58:22;;;;;;;0.20;0.20;;;;;;;-0.30;88.04;100172.13;6150115;23;20020;-84
2023/04/06 02:00:48;;;;;;;0.45;0.45;;;;;;;-0.34;88.69;100167.75;6097846;23;20135;-85
2023/04/06 02:03:15;;;;;;;2.38;0.52;;;;;;;-0.33;89.37;100169.34;6095944;23;20014;-84
2023/04/06 02:05:41;;;;;;;0.70;0.65;;;;;;;-0.42;89.28;100166.81;6119441;23;20018;-85
2023/04/06 02:08:22;;;;;;;0.20;0.20;;;;;;;-0.47;89.99;100156.22;6096457;23;20018;-84
2023/04/06 02:10:48;;;;;;;0.10;0.10;;;;;;;-0.43;90.58;100162.50;6094149;23;20041;-84
2023/04/06 02:13:24;;;;;;;0.57;0.45;;;;;;;-0.50;91.02;100160.47;6095821;23;20522;-84
2023/04/06 02:15:52;;;;;;;0.28;0.20;;;;;;;-0.47;90.37;100169.84;6093613;23;20478;-91
2023/04/06 02:18:18;;;;;;;0.15;0.15;;;;;;;-0.45;90.63;100170.28;6119968;23;20013;-91
2023/04/06 02:20:44;;;;;;;0.22;0.22;;;;;;;-0.56;90.81;100155.63;6093314;23;20100;-91
2023/04/06 02:23:10;;;;;;;0.00;0.00;;;;;;;-0.51;91.30;100160.81;6093413;23;20018;-90
2023/04/06 02:25:36;;;;;;;0.30;0.30;;;;;;;-0.56;91.29;100148.25;6117653;23;20006;-92
2023/04/06 02:28:02;;;;;;;0.00;0.00;;;;;;;-0.55;92.11;100157.22;6069880;23;20028;-91
2023/04/06 02:30:29;;;;;;;1.95;1.35;;;;;;;-0.61;92.97;100153.22;6095913;23;20017;-91
2023/04/06 02:32:55;;;;;;;0.15;0.15;;;;;;;-0.59;93.13;100159.09;6093033;23;20061;-84
2023/04/06 02:35:21;;;;;;;1.38;0.95;;;;;;;-0.61;92.77;100156.75;6070039;23;20364;-84
2023/04/06 02:37:52;;;;;;;0.28;0.28;;;;;;;-0.63;93.75;100147.31;6093506;23;20002;-84
2023/04/06 02:40:19;;;;;;;0.25;0.25;;;;;;;-0.63;93.80;100158.22;6092459;23;20018;-84
2023/04/06 02:42:45;;;;;;;0.20;0.20;;;;;;;-0.66;93.63;100153.50;6095167;23;20105;-84
2023/04/06 02:45:11;;;;;;;0.00;0.00;;;;;;;-0.72;93.76;100141.31;6092823;23;20021;-84
2023/04/06 02:47:42;;;;;;;0.00;0.00;;;;;;;-0.74;93.60;100151.78;6093675;23;20014;-84
2023/04/06 02:50:08;;;;;;;0.30;0.30;;;;;;;-0.78;93.52;100153.66;6093243;23;20444;-84
2023/04/06 02:52:41;;;;;;;0.37;0.37;;;;;;;-0.90;94.56;100134.72;6092231;23;20049;-84
2023/04/06 02:55:09;;;;;;;1.55;0.35;;;;;;;-0.76;94.55;100159.50;6094419;23;20018;-84
2023/04/06 02:57:35;;;;;;;0.25;0.25;;;;;;;-0.83;95.72;100162.09;6117208;23;20056;-84
2023/04/06 03:00:00;;;;;;;0.30;0.30;;;;;;;-0.97;95.33;100138.84;6093194;23;20022;-84
2023/04/06 03:02:35;;;;;;;1.27;0.52;;;;;;;-0.97;95.19;100140.81;6072490;23;20022;-84
2023/04/06 03:05:06;;;;;;;0.15;0.15;;;;;;;-0.92;95.62;100154.13;6092444;23;20077;-84
2023/04/06 03:07:37;;;;;;;0.08;0.08;;;;;;;-1.06;97.26;100138.28;6094281;23;20024;-84
2023/04/06 03:10:03;;;;;;;0.43;0.43;;;;;;;-1.02;97.24;100146.53;6069926;23;20034;-84
2023/04/06 03:12:30;;;;;;;1.77;1.30;;;;;;;-1.07;98.10;100144.88;6096021;23;20032;-85
2023/04/06 03:15:18;;;;;;;1.15;1.02;;;;;;;-1.06;98.01;100151.91;6075214;23;20010;-85
2023/04/06 03:17:49;;;;;;;1.15;0.98;;;;;;;-1.03;97.82;100162.06;6119581;23;20025;-84
2023/04/06 03:20:35;;;;;;;0.28;0.28;;;;;;;-1.08;98.13;100158.84;6096277;23;20064;-84
2023/04/06 03:23:00;;;;;;;0.10;0.10;;;;;;;-1.15;98.18;100154.03;6069750;23;20018;-85
2023/04/06 03:25:32;;;;;;;0.08;0.08;;;;;;;-1.17;97.60;100152.81;6096071;23;20462;-85
2023/04/06 03:28:02;;;;;;;0.10;0.10;;;;;;;-1.08;98.26;100167.00;6094441;23;20021;-85
2023/04/06 03:30:29;;;;;;;0.03;0.03;;;;;;;-1.15;97.66;100156.75;6096019;23;20014;-85
2023/04/06 03:32:55;;;;;;;0.20;0.20;;;;;;;-1.09;98.00;100168.94;6120158;23;20062;-84
2023/04/06 03:35:24;;;;;;;0.10;0.10;;;;;;;-1.06;98.24;100173.69;6141230;23;20474;-85
2023/04/06 03:37:50;;;;;;;0.95;0.70;;;;;;;-1.09;98.53;100177.09;6120476;23;20018;-85
2023/04/06 03:40:15;;;;;;;0.10;0.10;;;;;;;-1.24;98.34;100161.59;6095038;23;20031;-85
2023/04/06 03:42:41;;;;;;;0.30;0.30;;;;;;;-1.15;99.06;100181.25;6094813;23;20456;-85
2023/04/06 03:45:13;;;;;;;0.10;0.10;;;;;;;-1.20;98.72;100175.28;6119891;23;20101;-85
2023/04/06 03:47:44;;;;;;;0.30;0.30;;;;;;;-1.14;97.63;100177.41;6095959;23;20028;-85
2023/04/06 03:50:10;;;;;;;0.30;0.28;;;;;;;-1.24;98.41;100166.25;6096857;23;20057;-85
2023/04/06 03:52:36;;;;;;;0.25;0.25;;;;;;;-1.16;98.61;100173.44;6070760;23;20029;-85
2023/04/06 03:55:02;;;;;;;0.22;0.22;;;;;;;-1.19;98.42;100169.50;6070163;23;20067;-84
2023/04/06 03:57:27;;;;;;;0.15;0.15;;;;;;;-1.17;98.50;100178.09;6095751;23;20049;-85
2023/04/06 03:59:53;;;;;;;0.90;0.75;;;;;;;-1.30;99.04;100164.97;6070510;23;20080;-85
2023/04/06 04:02:19;;;;;;;0.00;0.00;;;;;;;-1.25;99.37;100170.16;6096211;23;20360;-85
2023/04/06 04:04:44;;;;;;;0.68;0.68;;;;;;;-1.28;99.22;100174.34;6120209;23;20076;-85
2023/04/06 04:07:10;;;;;;;0.17;0.17;;;;;;;-1.20;98.73;100184.25;6094092;23;20021;-85
2023/04/06 04:09:36;;;;;;;0.10;0.10;;;;;;;-1.22;99.38;100183.81;6095520;23;20025;-91
2023/04/06 04:12:02;;;;;;;0.73;0.73;;;;;;;-1.19;99.20;100185.84;6094127;23;20016;-90
2023/04/06 04:14:30;;;;;;;0.08;0.08;;;;;;;-1.25;99.13;100184.50;6072228;23;20056;-91
2023/04/06 04:16:55;;;;;;;0.45;0.45;;;;;;;-1.30;99.08;100182.09;6071499;23;20037;-91
2023/04/06 04:19:21;;;;;;;0.20;0.20;;;;;;;-1.21;98.79;100193.53;6096794;23;20049;-91
2023/04/06 04:21:46;;;;;;;0.47;0.45;;;;;;;-1.21;98.78;100192.78;6095143;23;20028;-91
2023/04/06 04:24:16;;;;;;;0.03;0.03;;;;;;;-1.22;98.89;100194.72;6096856;23;20018;-92
2023/04/06 04:26:42;;;;;;;2.10;0.98;;;;;;;-1.20;98.05;100188.91;6123091;23;20451;-85
2023/04/06 04:29:08;;;;;;;0.30;0.30;;;;;;;-1.19;98.76;100196.72;6071885;23;20018;-85
2023/04/06 04:31:35;;;;;;;1.38;1.27;;;;;;;-1.27;98.15;100184.09;6072194;23;20033;-84
2023/04/06 04:34:06;;;;;;;2.00;0.98;;;;;;;-1.20;98.53;100195.13;6094239;23;20527;-85
2023/04/06 04:36:33;;;;;;;0.05;0.05;;;;;;;-1.24;97.99;100177.13;6119261;23;20078;-85
2023/04/06 04:39:02;;;;;;;0.20;0.20;;;;;;;-1.25;97.91;100187.22;6072281;23;20072;-85
2023/04/06 04:41:31;;;;;;;0.30;0.30;;;;;;;-1.20;98.86;100194.34;6070701;23;20013;-84
2023/04/06 04:44:00;;;;;;;0.20;0.20;;;;;;;-1.19;99.34;100198.66;6119568;23;20014;-83
2023/04/06 04:46:26;;;;;;;0.30;0.30;;;;;;;-1.26;99.30;100193.84;6096801;23;20037;-83
2023/04/06 04:48:53;;;;;;;6.97;1.23;;;;;;;-1.18;99.37;100203.75;6095966;23;20072;-84
2023/04/06 04:51:19;;;;;;;0.60;0.60;;;;;;;-1.13;98.67;100206.19;6048270;23;20457;-83
2023/04/06 04:54:03;;;;;;;0.40;0.40;;;;;;;-1.18;98.72;100192.06;6075567;23;20340;-83
2023/04/06 04:56:30;;;;;;;0.30;0.30;;;;;;;-1.11;98.43;100197.66;6073000;23;20025;-84
2023/04/06 04:59:05;;;;;;;0.50;0.50;;;;;;;-1.11;98.70;100197.66;6097466;23;20010;-83
2023/04/06 05:01:34;;;;;;;0.28;0.28;;;;;;;-1.04;98.28;100203.25;6095196;23;20044;-84
2023/04/06 05:04:00;;;;;;;0.15;0.15;;;;;;;-1.01;97.42;100210.75;6094371;23;20104;-84
2023/04/06 05:06:26;;;;;;;0.75;0.63;;;;;;;-0.95;97.54;100201.94;6119301;23;20507;-84
2023/04/06 05:08:52;;;;;;;0.28;0.28;;;;;;;-0.95;96.80;100196.47;6067905;23;20105;-84
2023/04/06 05:11:19;;;;;;;0.25;0.25;;;;;;;-0.89;96.41;100188.03;6118278;23;20476;-85
2023/04/06 05:13:53;;;;;;;;;;;;;;;-0.70;96.01;100213.38;6097010;23;20033;-84
2023/04/06 05:16:22;;;;;;;1.25;1.00;;;;;;;-0.75;95.72;100194.56;6119982;23;19920;-92
2023/04/06 05:18:48;;;;;;;0.10;0.10;;;;;;;-0.63;95.62;100196.38;6070069;23;20420;-91
2023/04/06 05:21:15;;;;;;;0.10;0.10;;;;;;;-0.49;95.07;100202.91;6094653;23;20017;-91
2023/04/06 05:23:55;;;;;;;1.20;1.10;;;;;;;-0.42;95.57;100194.06;6117578;23;20024;-91
2023/04/06 05:26:21;;;;;;;0.80;0.80;;;;;;;-0.29;93.75;100190.06;6094215;23;20025;-92
2023/04/06 05:28:51;;;;;;;2.90;2.65;;;;;;;-0.10;93.10;100202.88;6070662;23;20033;-91
2023/04/06 05:31:17;;;;;;;6.97;5.15;;;;;;;0.10;90.90;100207.13;6070254;23;20026;-92
2023/04/06 05:33:48;;;;;;;9.30;4.05;;;;;;;0.18;88.67;100202.59;6071480;23;20048;-91
2023/04/06 05:36:16;;;;;;;2.75;1.75;;;;;;;0.40;86.97;100199.09;6123453;23;20456;-96
2023/04/06 05:38:45;;;;;;;0.25;0.25;;;;;;;0.47;87.79;100188.28;6099319;23;20013;-94
2023/04/06 05:41:26;;;;;;;3.63;1.60;;;;;;;0.79;86.16;100203.22;6078158;23;20014;-96
2023/04/06 05:43:51;;;;;;;1.33;1.08;;;;;;;0.91;83.87;100194.81;6053573;23;20021;-95
2023/04/06 05:46:18;;;;;;;0.43;0.43;;;;;;;1.10;83.08;100185.69;6078164;23;20017;-93
2023/04/06 05:48:43;;;;;;;0.20;0.20;;;;;;;1.29;80.17;100203.94;6077964;23;20024;-94
2023/04/06 05:51:11;;;;;;;0.20;0.20;;;;;;;1.40;79.78;100196.63;6126338;23;20042;-91
2023/04/06 05:53:45;;;;;;;1.85;1.20;;;;;;;1.38;77.83;100188.81;6074168;23;20471;-93
2023/04/06 05:56:11;;;;;;;0.65;0.65;;;;;;;1.67;77.82;100195.41;6095590;23;20017;-92
2023/04/06 05:58:36;;;;;;;3.15;0.57;;;;;;;1.78;75.46;100201.00;6096082;23;20499;-91
2023/04/06 06:01:05;;;;;;;0.75;0.75;;;;;;;1.93;75.79;100189.06;6096031;23;20026;-95
2023/04/06 06:03:39;;;;;;;0.20;0.20;;;;;;;1.89;73.99;100188.22;6095879;23;20025;-92
2023/04/06 06:06:05;;;;;;;1.45;1.35;;;;;;;2.01;73.32;100200.84;6095597;23;20014;-92
2023/04/06 06:09:02;;;;;;;2.40;1.17;;;;;;;2.03;73.28;100198.50;6098368;23;20024;-92
2023/04/06 06:11:38;;;;;;;0.28;0.28;;;;;;;2.13;73.28;100181.44;6077202;23;20092;-91
2023/04/06 06:14:21;;;;;;;0.20;0.20;;;;;;;2.45;72.68;100196.19;6072365;23;20112;-94
2023/04/06 06:16:50;;;;;;;0.82;0.82;;;;;;;2.57;69.32;100162.25;6072848;23;20053;-94
2023/04/06 06:19:24;;;;;;;0.10;0.10;;;;;;;2.87;67.13;100184.78;6094758;23;20025;-93
2023/04/06 06:21:54;;;;;;;1.25;0.47;;;;;;;2.92;67.08;100191.84;6096992;23;20014;-91
2023/04/06 06:24:21;;;;;;;0.57;0.47;;;;;;;2.92;67.05;100178.91;6117718;23;20014;-94
2023/04/06 06:26:48;;;;;;;0.13;0.13;;;;;;;2.92;68.14;100169.91;6069419;23;20065;-92
2023/04/06 06:29:15;;;;;;;0.85;0.77;;;;;;;3.17;68.30;100182.59;6094851;23;20006;-85
2023/04/06 06:31:40;;;;;;;0.85;0.85;;;;;;;3.22;66.56;100160.31;6119407;23;20072;-86
2023/04/06 06:34:06;;;;;;;0.60;0.60;;;;;;;3.18;66.69;100147.75;6094314;23;20376;-86
2023/04/06 06:36:35;;;;;;;0.55;0.55;;;;;;;3.36;66.47;100170.53;6119572;23;20029;-85
2023/04/06 06:39:03;;;;;;;0.20;0.20;;;;;;;3.59;66.24;100184.75;6094191;23;20432;-86
2023/04/06 06:41:29;;;;;;;0.47;0.47;;;;;;;3.60;65.84;100174.59;6094198;23;20108;-86
2023/04/06 06:43:56;;;;;;;0.75;0.45;;;;;;;3.46;66.41;100172.56;6070511;23;20017;-84
2023/04/06 06:46:25;;;;;;;2.13;1.40;;;;;;;3.61;66.71;100179.66;6095406;23;20021;-94
2023/04/06 06:48:51;;;;;;;0.60;0.60;;;;;;;3.81;65.55;100180.13;6093779;23;20101;-92
2023/04/06 06:51:16;;;;;;;4.57;1.42;;;;;;;3.97;63.97;100174.25;6048004;23;20044;-92
2023/04/06 06:53:42;;;;;;;0.00;0.00;;;;;;;4.02;64.60;100165.66;6094865;23;20093;-92
2023/04/06 06:56:07;;;;;;;0.85;0.85;;;;;;;4.25;63.50;100160.59;6119741;23;20002;-92
2023/04/06 06:58:33;;;;;;;2.22;1.23;;;;;;;4.39;63.64;100157.06;6093781;23;20044;-93
2023/04/06 07:00:59;;;;;;;0.00;0.00;;;;;;;4.77;61.89;100166.47;6094382;23;20066;-91
2023/04/06 07:03:26;;;;;;;0.47;0.38;;;;;;;4.75;59.38;100168.81;6094477;23;20018;-93
2023/04/06 07:05:54;;;;;;;1.75;0.75;;;;;;;4.34;58.60;100150.00;6070031;23;20014;-93
2023/04/06 07:08:20;;;;;;;0.28;0.28;;;;;;;4.44;60.91;100149.22;6091114;23;20329;-93
2023/04/06 07:10:46;;;;;;;0.38;0.38;;;;;;;4.63;59.24;100172.75;6091844;23;20052;-93
2023/04/06 07:13:18;;;;;;;1.55;1.25;;;;;;;4.55;59.51;100155.50;6093806;23;20022;-91
2023/04/06 07:15:44;;;;;;;0.20;0.20;;;;;;;4.70;60.07;100170.78;6093323;23;20029;-92
2023/04/06 07:18:11;;;;;;;1.38;1.27;;;;;;;4.88;59.76;100172.72;6115848;23;20014;-93
2023/04/06 07:20:37;;;;;;;1.85;1.25;;;;;;;4.83;59.74;100162.13;6091759;23;20014;-91
2023/04/06 07:23:05;;;;;;;2.05;1.80;;;;;;;5.10;60.49;100163.25;6091862;23;20009;-92
2023/04/06 07:25:30;;;;;;;1.13;0.77;;;;;;;5.12;58.48;100116.91;6092079;23;20140;-92
2023/04/06 07:28:01;;;;;;;1.23;1.02;;;;;;;5.38;56.79;100119.16;6043835;23;20044;-92
2023/04/06 07:30:27;;;;;;;0.17;0.15;;;;;;;5.43;53.68;100113.25;6093460;23;20018;-92
2023/04/06 07:32:56;;;;;;;2.17;0.85;;;;;;;5.28;54.93;100136.50;6092115;23;20093;-91
2023/04/06 07:35:25;;;;;;;0.50;0.50;;;;;;;5.31;53.35;100141.19;6090877;23;20024;-93
2023/04/06 07:37:52;;;;;;;0.98;0.98;;;;;;;5.55;52.18;100147.75;6090633;23;20124;-93
2023/04/06 07:40:19;;;;;;;0.32;0.32;;;;;;;6.00;51.17;100137.72;6067406;23;20010;-94
2023/04/06 07:42:49;;;;;;;0.52;0.52;;;;;;;6.09;48.53;100140.81;6091740;23;20409;-86
2023/04/06 07:45:17;;;;;;;1.77;1.65;;;;;;;6.09;50.48;100118.78;6092828;23;20022;-86
2023/04/06 07:47:43;;;;;;;0.50;0.50;;;;;;;6.19;49.01;100139.94;6066460;23;20491;-87
2023/04/06 07:50:09;;;;;;;0.32;0.32;;;;;;;6.31;49.08;100147.72;6091037;23;20022;-85
2023/04/06 07:52:36;;;;;;;11.70;7.85;;;;;;;6.57;48.81;100149.09;6066995;23;20020;-85
2023/04/06 07:55:02;;;;;;;6.18;3.65;;;;;;;6.73;48.46;100141.06;6142471;23;20058;-85
2023/04/06 07:57:27;;;;;;;3.58;3.28;;;;;;;6.63;48.06;100136.44;6094863;23;20084;-86
2023/04/06 07:59:53;;;;;;;3.95;2.83;;;;;;;6.31;48.64;100131.19;6120033;23;20360;-85
2023/04/06 08:02:19;;;;;;;0.50;0.32;;;;;;;6.28;50.24;100120.97;6119194;23;20009;-93
2023/04/06 08:04:45;;;;;;;0.55;0.55;;;;;;;6.43;49.69;100132.69;6064864;23;20053;-94
2023/04/06 08:07:10;;;;;;;2.83;0.88;;;;;;;6.29;49.78;100113.50;6066029;23;20015;-93
2023/04/06 08:09:36;;;;;;;0.30;0.30;;;;;;;6.12;51.26;100093.16;6066309;23;20022;-93
2023/04/06 08:12:02;;;;;;;1.95;1.00;;;;;;;6.23;50.53;100110.38;6064930;23;20006;-85
2023/04/06 08:14:27;;;;;;;2.15;1.95;;;;;;;6.36;50.79;100108.72;6066257;23;20053;-94
2023/04/06 08:16:53;;;;;;;0.10;0.10;;;;;;;6.82;50.45;100111.03;6041689;23;20417;-93
2023/04/06 08:19:19;;;;;;;0.17;0.15;;;;;;;6.89;49.38;100115.69;6066704;23;20018;-94
2023/04/06 08:21:46;;;;;;;0.85;0.85;;;;;;;7.27;49.03;100103.44;6091159;23;20011;-93
2023/04/06 08:24:12;;;;;;;0.88;0.88;;;;;;;7.45;48.11;100114.25;6043042;23;20022;-96
2023/04/06 08:26:37;;;;;;;0.77;0.77;;;;;;;7.36;47.90;100117.50;6091791;23;20022;-94
2023/04/06 08:29:04;;;;;;;0.30;0.30;;;;;;;7.38;49.29;100109.59;6091440;23;20010;-93
2023/04/06 08:31:30;;;;;;;1.55;1.45;;;;;;;7.48;47.96;100103.16;6091868;23;20022;-95
2023/04/06 08:33:56;;;;;;;0.00;0.00;;;;;;;7.68;47.32;100110.81;6068017;23;20089;-95
2023/04/06 08:36:22;;;;;;;0.90;0.90;;;;;;;7.65;47.03;100106.09;6092335;23;20019;-95
2023/04/06 08:38:49;;;;;;;1.10;1.10;;;;;;;7.94;46.44;100105.28;6067001;23;20361;-95
2023/04/06 08:41:16;;;;;;;1.08;0.77;;;;;;;8.22;46.22;100106.81;6090944;23;20019;-94
2023/04/06 08:44:04;;;;;;;2.70;2.40;;;;;;;8.11;45.77;100097.91;6044700;23;20014;-93
2023/04/06 08:46:30;;;;;;;8.05;3.75;;;;;;;7.95;45.09;100086.72;6091295;23;20050;-96
2023/04/06 08:48:57;;;;;;;1.17;0.93;;;;;;;7.80;45.23;100113.78;6068208;23;20028;-95
2023/04/06 08:51:27;;;;;;;7.25;4.03;;;;;;;8.07;46.16;100104.69;6068683;23;20089;-93
2023/04/06 08:53:56;;;;;;;1.23;1.15;;;;;;;8.38;43.49;100095.91;6067119;23;20445;-95
2023/04/06 08:56:23;;;;;;;0.68;0.68;;;;;;;8.27;41.75;100091.75;6068025;23;20026;-95
2023/04/06 08:58:49;;;;;;;0.45;0.43;;;;;;;8.03;42.09;100085.41;6068979;23;20393;-95
2023/04/06 09:01:17;;;;;;;0.10;0.10;;;;;;;7.50;42.39;100083.44;6073916;23;20018;-94
2023/04/06 09:03:43;;;;;;;0.03;0.03;;;;;;;7.60;42.96;100087.25;6099098;23;20022;-95
2023/04/06 09:06:10;;;;;;;0.38;0.38;;;;;;;7.80;42.44;100091.69;6096337;23;20018;-94
2023/04/06 09:08:37;;;;;;;0.43;0.43;;;;;;;7.63;42.46;100091.94;6091287;23;20020;-95
2023/04/06 09:11:03;;;;;;;0.82;0.55;;;;;;;7.29;41.89;100021.03;6070541;23;20027;-93
2023/04/06 09:13:29;;;;;;;0.93;0.85;;;;;;;7.73;42.32;100055.09;6070575;23;20101;-96
2023/04/06 09:16:06;;;;;;;0.17;0.17;;;;;;;8.47;41.40;100087.09;6071218;23;20370;-95
2023/04/06 09:18:33;;;;;;;0.70;0.43;;;;;;;8.25;41.25;100089.38;6075047;23;20026;-94
2023/04/06 09:21:05;;;;;;;0.82;0.82;;;;;;;8.54;40.90;100092.50;6125435;23;20101;-93
2023/04/06 09:23:31;;;;;;;0.45;0.45;;;;;;;8.75;40.74;100077.50;6094764;23;20449;-87
2023/04/06 09:26:25;;;;;;;0.60;0.52;;;;;;;8.80;40.37;100063.19;6119810;23;20125;-92
2023/04/06 09:28:54;;;;;;;0.35;0.35;;;;;;;8.83;39.51;100037.44;6073391;23;20021;-92
2023/04/06 09:31:26;;;;;;;1.65;1.35;;;;;;;8.83;38.86;100063.13;6093921;23;20014;-92
2023/04/06 09:33:52;;;;;;;0.05;0.05;;;;;;;9.05;39.57;100057.16;6093341;23;20030;-90
2023/04/06 09:36:19;;;;;;;0.70;0.52;;;;;;;9.01;38.67;100051.72;6070131;23;20014;-91
2023/04/06 09:38:59;;;;;;;0.73;0.73;;;;;;;8.92;39.70;100068.09;6119899;23;20002;-92
2023/04/06 09:41:26;;;;;;;0.85;0.85;;;;;;;8.60;38.67;100015.38;6095690;23;20017;-92
2023/04/06 09:44:01;;;;;;;0.30;0.30;;;;;;;9.23;39.35;100063.09;6118919;23;20357;-91
2023/04/06 09:46:27;;;;;;;0.25;0.25;;;;;;;9.20;38.36;100059.22;6120061;23;20013;-90
2023/04/06 09:48:53;;;;;;;0.40;0.40;;;;;;;9.26;38.63;100046.41;6119589;23;20093;-92
2023/04/06 09:51:20;;;;;;;0.15;0.15;;;;;;;9.40;37.81;100044.56;6119681;23;20331;-90
2023/04/06 09:53:50;;;;;;;0.30;0.30;;;;;;;9.84;37.31;100046.72;6119693;23;20072;-90
2023/04/06 09:56:20;;;;;;;0.55;0.55;;;;;;;10.08;36.92;100045.34;6066187;23;20073;-90
2023/04/06 09:58:47;;;;;;;0.95;0.95;;;;;;;10.23;37.17;100046.56;6119729;23;20013;-89
2023/04/06 10:01:15;;;;;;;0.32;0.25;;;;;;;10.32;36.11;100020.22;6071168;23;20409;-89
2023/04/06 10:04:01;;;;;;;0.10;0.10;;;;;;;10.68;35.60;100051.34;6121471;23;20358;-90
2023/04/06 10:06:28;;;;;;;0.47;0.47;;;;;;;10.64;35.48;100045.13;6124085;23;20458;-92
2023/04/06 10:08:55;;;;;;;0.10;0.10;;;;;;;10.60;35.11;100031.34;6123276;23;20017;-91
2023/04/06 10:11:21;;;;;;;0.30;0.30;;;;;;;10.27;35.39;100038.94;6124019;23;20013;-91
2023/04/06 10:13:48;;;;;;;2.58;1.45;;;;;;;9.82;35.67;100038.06;6123465;23;20021;-91
2023/04/06 10:16:14;;;;;;;0.47;0.47;;;;;;;9.79;35.13;100050.00;6076293;23;20346;-92
2023/04/06 10:18:44;;;;;;;0.90;0.45;;;;;;;9.51;35.19;100017.41;6149775;23;20462;-91
2023/04/06 10:21:12;;;;;;;0.35;0.35;;;;;;;9.40;35.39;100019.66;6148584;23;20013;-91
2023/04/06 10:24:00;;;;;;;0.45;0.45;;;;;;;9.36;36.26;100001.13;6123434;23;20021;-89
2023/04/06 10:26:26;;;;;;;0.20;0.20;;;;;;;9.72;35.21;100028.00;6123686;23;20028;-90
2023/04/06 10:28:52;;;;;;;0.75;0.75;;;;;;;9.19;35.66;99995.97;6148455;23;20013;-91
2023/04/06 10:31:26;;;;;;;0.32;0.32;;;;;;;9.51;35.31;100018.19;6148905;23;20009;-91
2023/04/06 10:33:59;;;;;;;;;;;;;;;9.69;35.80;100028.88;6124298;23;20204;-90
2023/04/06 10:36:27;;;;;;;0.43;0.43;;;;;;;9.74;34.94;100029.16;6150850;23;19924;-90
2023/04/06 10:39:01;;;;;;;0.17;0.17;;;;;;;9.93;34.52;100021.19;6123103;23;20014;-92
2023/04/06 10:41:42;;;;;;;0.35;0.35;;;;;;;9.96;34.42;100014.75;6099174;23;20395;-91
2023/04/06 10:44:08;;;;;;;0.15;0.15;;;;;;;9.85;34.49;100015.03;6124482;23;20346;-91
2023/04/06 10:46:34;;;;;;;0.68;0.68;;;;;;;10.16;35.06;100019.03;6123924;23;20411;-90
2023/04/06 10:49:13;;;;;;;0.30;0.30;;;;;;;10.25;35.06;100016.44;6099196;23;20033;-90
2023/04/06 10:51:39;;;;;;;0.17;0.17;;;;;;;10.29;34.80;100003.25;6125513;23;20013;-93
2023/04/06 10:54:09;;;;;;;0.98;0.98;;;;;;;10.29;34.93;99977.53;6098699;23;20353;-91
2023/04/06 10:56:37;;;;;;;0.30;0.30;;;;;;;10.04;34.82;100005.84;6098834;23;20582;-90
2023/04/06 10:59:02;;;;;;;0.28;0.28;;;;;;;10.04;35.21;100000.31;6098374;23;20465;-91
2023/04/06 11:01:28;;;;;;;0.73;0.73;;;;;;;9.76;35.60;99995.47;6123071;23;20013;-92
2023/04/06 11:03:55;;;;;;;3.45;1.80;;;;;;;9.94;35.41;100008.91;6097967;23;20454;-91
2023/04/06 11:06:30;;;;;;;0.20;0.20;;;;;;;10.04;36.39;99953.19;6122775;23;20014;-90
2023/04/06 11:08:57;;;;;;;0.52;0.52;;;;;;;9.69;35.37;99952.09;6121824;23;20335;-90
2023/04/06 11:11:26;;;;;;;0.40;0.40;;;;;;;10.43;36.13;99987.47;6147319;23;20009;-91
2023/04/06 11:13:53;;;;;;;0.28;0.28;;;;;;;10.39;35.75;99957.06;6123124;23;20020;-90
2023/04/06 11:16:21;;;;;;;0.55;0.55;;;;;;;10.21;35.53;99976.94;6122971;23;20006;-91
2023/04/06 11:18:48;;;;;;;0.55;0.55;;;;;;;10.22;36.00;99984.03;6098366;23;20017;-90
2023/04/06 11:21:13;;;;;;;0.52;0.52;;;;;;;10.24;36.05;99976.06;6123298;23;20015;-90
2023/04/06 11:23:39;;;;;;;0.57;0.38;;;;;;;10.20;35.35;99922.72;6097321;23;20097;-91
2023/04/06 11:26:10;;;;;;;0.47;0.47;;;;;;;10.44;35.57;99950.19;6122479;23;20099;-91
2023/04/06 11:28:36;;;;;;;0.30;0.30;;;;;;;9.98;35.21;99971.56;6125206;23;20088;-91
2023/04/06 11:31:01;;;;;;;0.50;0.50;;;;;;;10.04;35.90;99935.78;6125650;23;20044;-91
2023/04/06 11:33:27;;;;;;;0.32;0.32;;;;;;;10.17;35.62;99959.63;6150200;23;20025;-91
2023/04/06 11:35:52;;;;;;;0.43;0.43;;;;;;;9.78;34.10;99916.28;6125124;23;20001;-90
2023/04/06 11:38:20;;;;;;;3.85;0.85;;;;;;;10.40;34.67;99963.38;6124724;23;20040;-90
2023/04/06 11:40:45;;;;;;;0.85;0.73;;;;;;;10.26;33.28;99934.84;6101299;23;20010;-90